Time;durP1;ratioP1;P1;durP2;ratioP2;P2;SDS_P1;SDS_P2;PMS_P1;PMS_P2;Temp;Humidity;BMP_temperature;BMP_pressure;BME280_temperature;BME280_humidity;BME280_pressure;Samples;Min_cycle;Max_cycle;Signal;HPM_P1;HPM_P2
2022/11/02 00:01:42;;;;;;;4.18;2.65;;;10.00;24.10;;;;;;7364411;19;20021;-67
2022/11/02 00:04:12;;;;;;;7.53;2.78;;;10.00;24.60;;;;;;7363159;19;20386;-67
2022/11/02 00:06:43;;;;;;;8.70;3.00;;;10.00;24.80;;;;;;7363465;19;20014;-67
2022/11/02 00:09:15;;;;;;;9.52;2.78;;;9.90;25.40;;;;;;7364716;19;20015;-68
2022/11/02 00:11:46;;;;;;;6.35;2.70;;;9.80;25.90;;;;;;7390149;19;20024;-67
2022/11/02 00:14:15;;;;;;;7.13;2.83;;;9.80;26.30;;;;;;7364576;19;20025;-67
2022/11/02 00:16:45;;;;;;;6.25;2.65;;;9.80;26.40;;;;;;7362885;19;20014;-67
2022/11/02 00:19:15;;;;;;;6.20;2.65;;;9.80;25.90;;;;;;7363930;19;20071;-67
2022/11/02 00:21:45;;;;;;;6.68;2.90;;;9.70;25.70;;;;;;7365159;19;20018;-66
2022/11/02 00:24:18;;;;;;;6.90;2.75;;;9.60;26.70;;;;;;7367444;19;20501;-67
2022/11/02 00:26:48;;;;;;;4.97;2.55;;;9.60;27.80;;;;;;7383318;19;20018;-67
2022/11/02 00:29:19;;;;;;;5.38;2.80;;;9.70;27.80;;;;;;7362260;19;20014;-66
2022/11/02 00:31:49;;;;;;;7.18;3.10;;;9.70;27.70;;;;;;7363054;19;20018;-67
2022/11/02 00:34:20;;;;;;;6.45;2.70;;;9.80;27.20;;;;;;7363484;19;20107;-67
2022/11/02 00:36:49;;;;;;;4.78;2.88;;;9.80;27.00;;;;;;7361848;19;20010;-67
2022/11/02 00:39:26;;;;;;;;;;;9.70;27.30;;;;;;7367727;19;20014;-67
2022/11/02 00:41:56;;;;;;;7.55;3.10;;;9.70;27.50;;;;;;7386788;19;19942;-67
2022/11/02 00:44:26;;;;;;;6.50;3.30;;;9.70;27.40;;;;;;7363412;19;20019;-67
2022/11/02 00:46:56;;;;;;;8.27;3.08;;;9.60;27.70;;;;;;7360729;19;20035;-67
2022/11/02 00:49:25;;;;;;;9.23;3.58;;;9.60;27.50;;;;;;7362429;19;20029;-67
2022/11/02 00:51:55;;;;;;;7.28;3.22;;;9.60;27.90;;;;;;7363297;19;20086;-66
2022/11/02 00:54:28;;;;;;;7.25;3.45;;;9.60;28.50;;;;;;7363222;19;20018;-67
2022/11/02 00:56:58;;;;;;;11.90;3.83;;;9.60;28.90;;;;;;7382317;19;20537;-67
2022/11/02 00:59:27;;;;;;;9.88;4.03;;;9.60;29.20;;;;;;7362208;19;20122;-67
2022/11/02 01:01:57;;;;;;;10.27;3.92;;;9.60;29.10;;;;;;7362487;19;20644;-67
2022/11/02 01:04:27;;;;;;;9.38;4.20;;;9.60;29.30;;;;;;7362979;19;20014;-67
2022/11/02 01:06:57;;;;;;;12.77;3.90;;;9.60;29.40;;;;;;7361412;19;20007;-67
2022/11/02 01:09:29;;;;;;;7.82;3.30;;;9.60;29.30;;;;;;7363393;19;20019;-67
2022/11/02 01:11:59;;;;;;;8.55;3.30;;;9.60;29.40;;;;;;7383867;19;20014;-67
2022/11/02 01:14:29;;;;;;;11.90;4.25;;;9.60;29.40;;;;;;7361894;19;20015;-67
2022/11/02 01:16:59;;;;;;;10.77;3.75;;;9.70;29.40;;;;;;7359567;19;20347;-67
2022/11/02 01:19:29;;;;;;;10.63;3.50;;;9.60;29.30;;;;;;7362360;19;20410;-67
2022/11/02 01:21:59;;;;;;;6.95;3.40;;;9.60;29.30;;;;;;7362143;19;20601;-67
2022/11/02 01:24:31;;;;;;;7.72;3.70;;;9.60;29.30;;;;;;7362446;19;20007;-67
2022/11/02 01:27:01;;;;;;;9.32;3.97;;;9.60;29.30;;;;;;7381201;19;20033;-66
2022/11/02 01:29:31;;;;;;;11.75;3.90;;;9.50;29.30;;;;;;7360926;19;20007;-67
2022/11/02 01:32:01;;;;;;;10.60;3.55;;;9.60;29.70;;;;;;7362067;19;20021;-67
2022/11/02 01:34:30;;;;;;;10.55;3.53;;;9.70;29.10;;;;;;7362219;19;20083;-67
2022/11/02 01:37:00;;;;;;;6.35;3.22;;;9.70;28.90;;;;;;7359564;19;20063;-67
2022/11/02 01:39:32;;;;;;;7.07;3.03;;;9.70;28.70;;;;;;7362063;19;20018;-67
2022/11/02 01:42:02;;;;;;;9.85;3.22;;;9.70;29.20;;;;;;7385240;19;20015;-67
2022/11/02 01:44:34;;;;;;;8.05;3.05;;;9.70;29.40;;;;;;7361346;19;20006;-67
2022/11/02 01:47:09;;;;;;;8.32;2.92;;;9.70;28.60;;;;;;7359030;19;20035;-67
2022/11/02 01:49:43;;;;;;;8.57;3.10;;;9.70;28.60;;;;;;7360348;19;20010;-68
2022/11/02 01:52:15;;;;;;;7.65;2.58;;;9.70;28.50;;;;;;7359356;19;20017;-67
2022/11/02 01:54:54;;;;;;;9.13;2.85;;;9.80;28.70;;;;;;7360085;19;20020;-67
2022/11/02 01:57:25;;;;;;;10.73;3.40;;;9.80;28.50;;;;;;7357674;19;20018;-67
2022/11/02 02:00:00;;;;;;;9.82;2.40;;;9.90;28.60;;;;;;7380942;19;20018;-67
2022/11/02 02:02:30;;;;;;;11.55;2.60;;;10.00;26.70;;;;;;7359778;19;20074;-67
2022/11/02 02:05:05;;;;;;;7.22;2.72;;;10.00;26.20;;;;;;7360171;19;20014;-67
2022/11/02 02:07:38;;;;;;;5.32;2.13;;;10.10;25.90;;;;;;7357210;19;20447;-67
2022/11/02 02:10:11;;;;;;;7.93;2.58;;;10.10;25.10;;;;;;7361936;19;20017;-67
2022/11/02 02:12:42;;;;;;;8.75;2.28;;;10.20;24.50;;;;;;7360045;19;20022;-67
2022/11/02 02:15:14;;;;;;;6.03;2.10;;;10.20;24.50;;;;;;7363454;19;20018;-67
2022/11/02 02:17:49;;;;;;;8.77;2.35;;;10.20;24.30;;;;;;7378784;19;20014;-67
2022/11/02 02:20:36;;;;;;;9.57;2.58;;;10.30;23.80;;;;;;7358280;19;20022;-67
2022/11/02 02:23:31;;;;;;;6.38;2.78;;;10.30;23.90;;;;;;7360146;19;20076;-67
2022/11/02 02:26:34;;;;;;;9.13;2.42;;;10.30;23.60;;;;;;7359154;19;20019;-68
2022/11/02 02:29:13;;;;;;;6.20;2.80;;;10.30;23.40;;;;;;7367253;19;20028;-67
2022/11/02 02:31:51;;;;;;;10.38;3.00;;;10.30;23.40;;;;;;7367634;19;20010;-67
2022/11/02 02:34:24;;;;;;;7.07;3.25;;;10.30;23.50;;;;;;7367020;19;20048;-68
2022/11/02 02:36:59;;;;;;;8.95;3.25;;;10.30;23.30;;;;;;7366838;19;20015;-67
2022/11/02 02:39:36;;;;;;;12.38;4.10;;;10.20;23.80;;;;;;7366713;19;20124;-67
2022/11/02 02:42:14;;;;;;;8.52;3.75;;;10.20;24.30;;;;;;7391539;19;20034;-68
2022/11/02 02:44:54;;;;;;;8.27;3.60;;;10.20;24.80;;;;;;7367202;19;20018;-67
2022/11/02 02:47:27;;;;;;;8.35;3.78;;;10.20;24.80;;;;;;7363758;19;20454;-67
2022/11/02 02:50:04;;;;;;;10.82;3.90;;;10.20;24.50;;;;;;7365864;19;20015;-67
2022/11/02 02:52:36;;;;;;;7.35;3.70;;;10.20;24.50;;;;;;7367577;19;20014;-67
2022/11/02 02:55:08;;;;;;;7.50;4.00;;;10.20;24.40;;;;;;7367279;19;20018;-67
2022/11/02 02:57:39;;;;;;;7.15;3.67;;;10.20;24.90;;;;;;7364380;19;20021;-67
2022/11/02 03:00:18;;;;;;;8.13;3.75;;;10.10;25.30;;;;;;7375614;19;20379;-68
2022/11/02 03:02:59;;;;;;;10.88;3.90;;;10.10;25.30;;;;;;7387944;19;20021;-67
2022/11/02 03:05:33;;;;;;;11.98;4.35;;;10.10;25.30;;;;;;7365703;19;20015;-67
2022/11/02 03:08:07;;;;;;;7.85;3.50;;;10.10;25.60;;;;;;7365055;19;20021;-67
2022/11/02 03:10:44;;;;;;;7.10;3.60;;;10.20;24.90;;;;;;7366785;19;20081;-67
2022/11/02 03:13:22;;;;;;;8.00;3.63;;;10.20;24.80;;;;;;7368696;19;20526;-67
2022/11/02 03:15:59;;;;;;;7.78;3.80;;;10.10;25.10;;;;;;7365105;19;20118;-67
2022/11/02 03:18:37;;;;;;;8.70;4.05;;;10.10;25.50;;;;;;7365337;19;19999;-67
2022/11/02 03:21:14;;;;;;;9.27;3.88;;;10.10;25.50;;;;;;7387284;19;20043;-67
2022/11/02 03:23:52;;;;;;;5.93;3.75;;;10.10;25.50;;;;;;7365823;19;20013;-67
2022/11/02 03:26:28;;;;;;;8.95;3.60;;;10.10;25.60;;;;;;7364673;19;20021;-68
2022/11/02 03:29:03;;;;;;;9.73;4.05;;;10.10;25.90;;;;;;7365470;19;20010;-67
2022/11/02 03:31:42;;;;;;;6.30;3.33;;;10.10;26.70;;;;;;7363972;19;20014;-67
2022/11/02 03:34:24;;;;;;;5.50;3.20;;;10.10;26.90;;;;;;7365391;19;20057;-67
2022/11/02 03:37:05;;;;;;;9.15;3.08;;;10.10;26.80;;;;;;7363989;19;20012;-67
2022/11/02 03:39:39;;;;;;;5.05;3.30;;;10.10;27.00;;;;;;7362666;19;20018;-68
2022/11/02 03:42:15;;;;;;;10.45;3.17;;;10.00;27.30;;;;;;7372363;19;20413;-68
2022/11/02 03:44:46;;;;;;;6.88;3.08;;;10.00;28.10;;;;;;7387118;19;20015;-67
2022/11/02 03:47:20;;;;;;;7.18;2.90;;;10.00;28.40;;;;;;7361975;19;20015;-68
2022/11/02 03:49:53;;;;;;;7.72;3.60;;;10.10;27.60;;;;;;7364223;19;20019;-67
2022/11/02 03:52:25;;;;;;;7.63;3.25;;;10.20;26.70;;;;;;7364222;19;20512;-67
2022/11/02 03:55:04;;;;;;;8.40;3.03;;;10.20;26.70;;;;;;7365084;19;20014;-68
2022/11/02 03:57:39;;;;;;;6.13;2.72;;;10.20;26.20;;;;;;7362892;19;20011;-67
2022/11/02 04:00:11;;;;;;;5.40;2.60;;;10.20;25.90;;;;;;7374365;19;20053;-67
2022/11/02 04:02:47;;;;;;;8.00;3.08;;;10.20;25.60;;;;;;7386335;19;20087;-68
2022/11/02 04:05:17;;;;;;;8.35;3.28;;;10.20;25.70;;;;;;7364528;19;20388;-67
2022/11/02 04:10:34;;;;;;;12.55;3.13;;;10.20;25.70;;;;;;7366305;19;20375;-68
2022/11/02 04:15:47;;;;;;;6.43;3.10;;;10.20;25.60;;;;;;7364631;19;20018;-68
2022/11/02 04:21:01;;;;;;;;;;;10.20;25.70;;;;;;7385449;19;20486;-67
2022/11/02 04:26:13;;;;;;;5.65;2.75;;;10.10;25.60;;;;;;7363055;19;20010;-67
2022/11/02 04:28:43;;;;;;;8.27;2.72;;;10.10;25.70;;;;;;7363104;19;20014;-67
2022/11/02 04:31:13;;;;;;;4.05;2.72;;;10.10;25.70;;;;;;7362903;19;20054;-67
2022/11/02 04:33:43;;;;;;;4.97;2.58;;;10.00;25.90;;;;;;7363736;19;20014;-67
2022/11/02 04:36:13;;;;;;;5.25;2.90;;;10.00;26.20;;;;;;7362676;19;20022;-68
2022/11/02 04:38:40;;;;;;;7.00;2.97;;;10.00;26.10;;;;;;7386759;19;20339;-68
2022/11/02 04:43:54;;;;;;;5.78;2.80;;;10.00;25.50;;;;;;7362897;19;20022;-67
2022/11/02 04:46:25;;;;;;;8.45;2.70;;;10.00;25.70;;;;;;7362333;19;20014;-67
2022/11/02 04:48:58;;;;;;;7.15;2.78;;;10.00;25.40;;;;;;7362289;19;20254;-68
2022/11/02 04:51:29;;;;;;;9.07;2.70;;;10.00;25.20;;;;;;7362158;19;20019;-67
2022/11/02 04:54:00;;;;;;;6.03;3.08;;;9.90;26.10;;;;;;7384775;19;20029;-67
2022/11/02 04:56:31;;;;;;;6.35;3.15;;;9.80;27.10;;;;;;7361433;19;20019;-67
2022/11/02 04:59:03;;;;;;;9.00;3.05;;;9.90;27.20;;;;;;7361943;19;20014;-67
2022/11/02 05:01:33;;;;;;;9.63;3.08;;;9.90;27.00;;;;;;7362871;19;20043;-68
2022/11/02 05:04:06;;;;;;;5.30;2.47;;;9.90;26.90;;;;;;7364657;19;20495;-67
2022/11/02 05:06:36;;;;;;;8.98;3.00;;;9.80;27.00;;;;;;7362220;19;20011;-68
2022/11/02 05:09:08;;;;;;;9.52;2.92;;;9.80;26.80;;;;;;7380587;19;20024;-67
2022/11/02 05:11:38;;;;;;;5.70;2.53;;;9.80;26.90;;;;;;7387214;19;20351;-67
2022/11/02 05:14:07;;;;;;;8.60;2.95;;;9.80;27.30;;;;;;7361512;19;20020;-67
2022/11/02 05:16:37;;;;;;;9.65;2.78;;;9.70;27.40;;;;;;7360683;19;20014;-67
2022/11/02 05:19:10;;;;;;;6.93;2.40;;;9.80;26.70;;;;;;7362409;19;20014;-67
2022/11/02 05:21:39;;;;;;;5.28;2.28;;;9.80;26.50;;;;;;7362558;19;20011;-67
2022/11/02 05:24:09;;;;;;;8.73;2.38;;;9.80;26.60;;;;;;7363202;19;20059;-68
2022/11/02 05:26:39;;;;;;;6.28;2.35;;;9.80;25.80;;;;;;7381290;19;20054;-68
2022/11/02 05:29:09;;;;;;;10.50;2.75;;;9.80;25.70;;;;;;7361240;19;20477;-68
2022/11/02 05:31:39;;;;;;;9.75;2.42;;;9.80;26.00;;;;;;7362071;19;20058;-67
2022/11/02 05:34:12;;;;;;;6.32;2.80;;;9.80;26.20;;;;;;7361837;19;20015;-68
2022/11/02 05:36:41;;;;;;;7.22;2.10;;;9.80;26.00;;;;;;7360201;19;20018;-67
2022/11/02 05:39:11;;;;;;;11.93;2.30;;;9.80;25.40;;;;;;7365618;19;20014;-68
2022/11/02 05:41:41;;;;;;;5.60;2.15;;;9.90;25.80;;;;;;7384006;19;20011;-67
2022/11/02 05:44:11;;;;;;;5.50;2.20;;;9.90;25.10;;;;;;7360957;19;20011;-67
2022/11/02 05:46:41;;;;;;;7.30;2.05;;;10.00;24.10;;;;;;7359529;19;20011;-67
2022/11/02 05:49:13;;;;;;;12.20;2.40;;;10.00;23.40;;;;;;7360236;19;20130;-68
2022/11/02 05:51:44;;;;;;;8.43;2.15;;;10.00;23.20;;;;;;7362026;19;20014;-68
2022/11/02 05:54:14;;;;;;;7.72;2.42;;;10.10;22.90;;;;;;7361379;19;20025;-67
2022/11/02 05:56:44;;;;;;;3.75;1.95;;;10.20;22.20;;;;;;7380515;19;20021;-67
2022/11/02 05:59:14;;;;;;;6.47;2.40;;;10.20;22.10;;;;;;7362506;19;20013;-68
2022/11/02 06:01:44;;;;;;;9.30;2.08;;;10.30;21.30;;;;;;7362778;19;20482;-68
2022/11/02 06:04:16;;;;;;;12.88;2.58;;;10.50;19.90;;;;;;7368351;19;20018;-68
2022/11/02 06:06:46;;;;;;;9.63;2.28;;;10.50;19.30;;;;;;7366712;19;20015;-68
2022/11/02 06:09:16;;;;;;;6.47;2.00;;;10.60;18.10;;;;;;7369393;19;20007;-68
2022/11/02 06:11:46;;;;;;;4.55;2.08;;;10.70;17.40;;;;;;7393940;19;20017;-68
2022/11/02 06:14:16;;;;;;;8.15;2.03;;;10.60;17.10;;;;;;7366933;19;20011;-67
2022/11/02 06:16:46;;;;;;;7.28;2.20;;;10.60;16.90;;;;;;7365719;19;20053;-68
2022/11/02 06:19:18;;;;;;;6.20;2.00;;;10.70;16.60;;;;;;7366859;19;20082;-67
2022/11/02 06:21:48;;;;;;;6.82;1.95;;;10.70;15.50;;;;;;7367761;19;20015;-67
2022/11/02 06:24:18;;;;;;;5.03;1.70;;;10.80;15.20;;;;;;7367464;19;20478;-67
2022/11/02 06:26:48;;;;;;;7.03;2.03;;;10.80;14.40;;;;;;7384864;19;20021;-68
2022/11/02 06:29:18;;;;;;;8.88;2.35;;;10.80;14.60;;;;;;7365500;19;20022;-68
2022/11/02 06:31:48;;;;;;;8.90;2.63;;;10.90;14.80;;;;;;7367293;19;20010;-67
2022/11/02 06:34:20;;;;;;;6.47;2.38;;;10.90;14.70;;;;;;7365795;19;20635;-67
2022/11/02 06:36:50;;;;;;;6.07;2.03;;;10.90;14.80;;;;;;7365630;19;20456;-68
2022/11/02 06:39:19;;;;;;;6.57;2.05;;;10.90;13.90;;;;;;7370375;19;20125;-68
2022/11/02 06:41:49;;;;;;;7.63;2.28;;;10.90;14.40;;;;;;7389872;19;20022;-68
2022/11/02 06:44:19;;;;;;;4.85;2.40;;;10.80;13.30;;;;;;7366161;19;20520;-67
2022/11/02 06:46:49;;;;;;;10.13;2.63;;;10.80;14.50;;;;;;7364246;19;20015;-68
2022/11/02 06:49:22;;;;;;;5.20;2.42;;;10.80;14.40;;;;;;7366431;19;20470;-68
2022/11/02 06:51:52;;;;;;;11.00;2.60;;;10.80;15.50;;;;;;7366985;19;20018;-67
2022/11/02 06:54:22;;;;;;;5.35;2.08;;;10.90;15.00;;;;;;7366349;19;20010;-67
2022/11/02 06:56:52;;;;;;;4.55;2.15;;;10.80;15.50;;;;;;7389808;19;20026;-67
2022/11/02 06:59:22;;;;;;;9.52;2.42;;;10.90;15.60;;;;;;7365114;19;20842;-68
2022/11/02 07:01:52;;;;;;;4.05;2.10;;;10.90;15.60;;;;;;7366150;19;20015;-68
2022/11/02 07:04:25;;;;;;;7.63;2.55;;;10.90;15.60;;;;;;7365442;19;20017;-68
2022/11/02 07:06:55;;;;;;;19.65;3.58;;;11.00;16.40;;;;;;7365238;19;20015;-68
2022/11/02 07:09:25;;;;;;;27.48;4.43;;;11.10;17.60;;;;;;7367522;19;20021;-68
2022/11/02 07:11:55;;;;;;;17.42;2.92;;;11.10;18.80;;;;;;7387286;19;20015;-67
2022/11/02 07:14:25;;;;;;;13.43;2.90;;;11.20;18.30;;;;;;7362940;19;20478;-66
2022/11/02 07:16:55;;;;;;;11.90;2.45;;;11.20;18.50;;;;;;7363448;19;20078;-67
2022/11/02 07:19:27;;;;;;;23.85;3.00;;;11.20;18.40;;;;;;7365298;19;20014;-67
2022/11/02 07:22:00;;;;;;;10.20;2.72;;;11.20;17.60;;;;;;7364600;19;20494;-68
2022/11/02 07:24:30;;;;;;;8.10;2.03;;;11.30;18.30;;;;;;7366076;19;20018;-67
2022/11/02 07:27:00;;;;;;;5.68;2.08;;;11.30;16.30;;;;;;7384455;19;20025;-67
2022/11/02 07:29:30;;;;;;;9.77;2.50;;;11.40;17.60;;;;;;7363999;19;20473;-68
2022/11/02 07:32:00;;;;;;;13.60;2.33;;;11.40;18.00;;;;;;7365306;19;20486;-67
2022/11/02 07:34:32;;;;;;;10.43;2.42;;;11.50;17.80;;;;;;7363993;19;20010;-68
2022/11/02 07:37:02;;;;;;;10.88;2.83;;;11.50;16.30;;;;;;7363425;19;20010;-68
2022/11/02 07:39:31;;;;;;;6.80;2.17;;;11.50;16.50;;;;;;7363960;19;20014;-68
2022/11/02 07:42:01;;;;;;;6.55;2.13;;;11.60;17.30;;;;;;7388716;19;20040;-68
2022/11/02 07:44:32;;;;;;;7.30;2.45;;;11.60;17.00;;;;;;7364304;19;20427;-67
2022/11/02 07:47:02;;;;;;;7.47;2.33;;;11.60;16.70;;;;;;7361991;19;20038;-68
2022/11/02 07:49:34;;;;;;;11.82;2.45;;;11.60;17.50;;;;;;7363513;19;20038;-68
2022/11/02 07:52:04;;;;;;;5.55;2.20;;;11.70;17.40;;;;;;7365688;19;20011;-67
2022/11/02 07:54:34;;;;;;;10.05;2.47;;;11.70;17.10;;;;;;7363544;19;20061;-68
2022/11/02 07:57:03;;;;;;;10.07;2.55;;;11.80;16.30;;;;;;7383484;19;20018;-67
2022/11/02 07:59:35;;;;;;;6.97;2.70;;;11.90;16.80;;;;;;7363653;19;20014;-67
2022/11/02 08:02:05;;;;;;;8.27;2.20;;;11.90;16.30;;;;;;7364185;19;20018;-67
2022/11/02 08:04:37;;;;;;;7.55;2.20;;;12.10;16.40;;;;;;7364166;19;20021;-67
2022/11/02 08:07:13;;;;;;;11.32;2.45;;;12.20;14.80;;;;;;7363275;19;20014;-67
2022/11/02 08:09:43;;;;;;;5.70;2.33;;;12.30;14.40;;;;;;7366419;19;20014;-67
2022/11/02 08:12:13;;;;;;;11.65;2.67;;;12.40;13.30;;;;;;7363478;19;20102;-67
2022/11/02 08:14:42;;;;;;;7.18;2.35;;;12.50;11.50;;;;;;7383763;19;20014;-67
2022/11/02 08:17:13;;;;;;;10.93;2.65;;;12.60;11.10;;;;;;7361388;19;20038;-67
2022/11/02 08:19:45;;;;;;;6.07;1.88;;;12.70;10.90;;;;;;7362870;19;20014;-68
2022/11/02 08:22:15;;;;;;;7.35;2.10;;;12.80;10.50;;;;;;7361500;19;20007;-67
2022/11/02 08:24:45;;;;;;;7.95;2.03;;;12.90;9.80;;;;;;7360825;19;20010;-67
2022/11/02 08:27:15;;;;;;;5.93;2.08;;;12.90;8.60;;;;;;7360461;19;20039;-68
2022/11/02 08:29:45;;;;;;;9.55;2.15;;;13.00;7.00;;;;;;7382943;19;20029;-67
2022/11/02 08:32:14;;;;;;;4.90;1.95;;;13.00;6.50;;;;;;7364682;19;20022;-67
2022/11/02 08:34:47;;;;;;;4.45;1.63;;;13.10;6.20;;;;;;7363072;19;20046;-68
2022/11/02 08:37:17;;;;;;;6.90;2.00;;;13.20;6.20;;;;;;7363383;19;20014;-67
2022/11/02 08:39:47;;;;;;;9.68;2.17;;;13.20;4.30;;;;;;7351872;19;20027;-68
2022/11/02 08:42:16;;;;;;;8.27;2.00;;;13.30;3.90;;;;;;7352445;19;20054;-68
2022/11/02 08:44:46;;;;;;;9.15;2.33;;;13.30;2.60;;;;;;7378260;19;20049;-68
2022/11/02 08:47:17;;;;;;;7.53;1.80;;;13.40;2.60;;;;;;7357053;19;20589;-67
2022/11/02 08:49:51;;;;;;;6.60;1.77;;;13.40;1.00;;;;;;7361456;19;20011;-68
2022/11/02 08:52:20;;;;;;;67.85;41.67;;;13.40;1.00;;;;;;7358047;19;20018;-68
2022/11/02 08:54:50;;;;;;;9.35;2.60;;;13.50;1.00;;;;;;7358877;19;20011;-68
2022/11/02 08:57:20;;;;;;;10.00;2.25;;;13.70;1.00;;;;;;7358817;19;20014;-68
2022/11/02 08:59:50;;;;;;;7.88;2.05;;;13.50;1.00;;;;;;7381768;19;20025;-68
2022/11/02 09:02:20;;;;;;;8.25;1.98;;;13.40;1.00;;;;;;7355085;19;20101;-68
2022/11/02 09:04:52;;;;;;;6.15;2.40;;;13.50;1.00;;;;;;7359423;19;20022;-68
2022/11/02 09:07:22;;;;;;;6.95;2.40;;;13.60;1.00;;;;;;7359315;19;20018;-68
2022/11/02 09:09:52;;;;;;;8.82;1.80;;;13.70;1.00;;;;;;7357753;19;20003;-68
2022/11/02 09:12:22;;;;;;;8.15;1.75;;;13.70;1.00;;;;;;7352728;19;20018;-68
2022/11/02 09:14:51;;;;;;;6.97;2.10;;;13.70;1.00;;;;;;7382075;19;20006;-68
2022/11/02 09:17:21;;;;;;;11.02;2.33;;;13.80;1.00;;;;;;7358387;19;20010;-68
2022/11/02 09:19:54;;;;;;;8.50;2.10;;;13.80;1.00;;;;;;7358398;19;20015;-67
2022/11/02 09:22:23;;;;;;;5.78;2.00;;;13.90;1.00;;;;;;7354006;19;20501;-68
2022/11/02 09:24:53;;;;;;;7.55;1.70;;;14.00;1.00;;;;;;7358727;19;20002;-68
2022/11/02 09:27:23;;;;;;;7.75;1.90;;;13.90;1.00;;;;;;7354441;19;20021;-68
2022/11/02 09:29:53;;;;;;;5.65;1.63;;;13.90;1.00;;;;;;7380551;19;20026;-68
2022/11/02 09:32:23;;;;;;;8.25;1.70;;;13.90;1.00;;;;;;7355097;19;20017;-68
2022/11/02 09:34:55;;;;;;;8.75;1.98;;;14.00;1.00;;;;;;7357196;19;20018;-68
2022/11/02 09:37:25;;;;;;;8.82;2.03;;;14.10;1.00;;;;;;7355704;19;20469;-68
2022/11/02 09:39:55;;;;;;;5.65;1.38;;;14.00;1.00;;;;;;7355551;19;20038;-68
2022/11/02 09:42:27;;;;;;;6.05;1.67;;;14.00;1.00;;;;;;7352786;19;20018;-68
2022/11/02 09:45:00;;;;;;;6.57;1.60;;;14.00;1.00;;;;;;7378619;19;20011;-68
2022/11/02 09:47:33;;;;;;;8.55;2.20;;;14.00;1.00;;;;;;7357903;19;20017;-68
2022/11/02 09:50:31;;;;;;;5.07;1.90;;;14.10;1.00;;;;;;7351792;19;21315;-68
2022/11/02 09:53:05;;;;;;;4.82;1.70;;;14.20;1.00;;;;;;7357276;19;20014;-68
2022/11/02 09:55:40;;;;;;;9.70;1.60;;;14.20;1.00;;;;;;7355735;19;21113;-68
2022/11/02 09:58:17;;;;;;;5.57;1.65;;;14.00;1.00;;;;;;7355705;19;20010;-68
2022/11/02 10:00:51;;;;;;;9.45;1.90;;;14.00;1.00;;;;;;7350267;19;20014;-68
2022/11/02 10:03:31;;;;;;;8.38;1.77;;;14.10;1.00;;;;;;7357751;19;20470;-68
2022/11/02 10:06:09;;;;;;;9.52;1.90;;;14.00;1.00;;;;;;7376767;19;20019;-68
2022/11/02 10:08:47;;;;;;;5.97;1.77;;;13.90;1.00;;;;;;7357050;19;20510;-68
2022/11/02 10:11:31;;;;;;;8.20;1.95;;;13.90;1.00;;;;;;7349926;19;20699;-67
2022/11/02 10:14:06;;;;;;;7.90;2.05;;;13.90;1.00;;;;;;7357675;19;20513;-67
2022/11/02 10:16:39;;;;;;;8.68;1.80;;;14.00;1.00;;;;;;7356395;19;20021;-67
2022/11/02 10:19:17;;;;;;;10.70;1.73;;;14.00;1.00;;;;;;7357539;19;20010;-67
2022/11/02 10:21:53;;;;;;;8.88;1.95;;;14.10;1.00;;;;;;7352168;19;20025;-67
2022/11/02 10:24:27;;;;;;;4.35;1.50;;;14.10;1.00;;;;;;7358390;19;20015;-67
2022/11/02 10:27:00;;;;;;;7.20;1.80;;;14.00;1.00;;;;;;7377566;19;20018;-67
2022/11/02 10:29:42;;;;;;;9.30;1.77;;;14.00;1.00;;;;;;7357316;19;20029;-67
2022/11/02 10:32:15;;;;;;;8.93;2.10;;;14.00;1.00;;;;;;7350971;19;20398;-68
2022/11/02 10:34:46;;;;;;;9.65;2.22;;;13.80;1.00;;;;;;7355695;19;20011;-67
2022/11/02 10:37:51;;;;;;;8.35;1.85;;;14.00;1.00;;;;;;7355434;19;20021;-67
2022/11/02 10:40:41;;;;;;;11.18;2.22;;;13.90;1.00;;;;;;7351081;19;20038;-67
2022/11/02 10:43:25;;;;;;;9.18;2.28;;;14.00;1.00;;;;;;7357532;19;20007;-67
2022/11/02 10:46:15;;;;;;;8.50;2.25;;;14.10;1.00;;;;;;7358212;19;20007;-68
2022/11/02 10:48:54;;;;;;;7.20;1.73;;;13.80;1.00;;;;;;7360679;19;20011;-67
2022/11/02 10:51:24;;;;;;;10.45;1.95;;;13.80;1.00;;;;;;7357662;19;20018;-67
2022/11/02 10:53:57;;;;;;;9.35;1.88;;;13.90;1.00;;;;;;7387357;19;20346;-67
2022/11/02 10:56:32;;;;;;;8.32;1.95;;;13.90;1.00;;;;;;7362598;19;20029;-65
2022/11/02 10:59:10;;;;;;;11.77;2.35;;;14.10;1.00;;;;;;7364644;19;20010;-65
2022/11/02 11:01:47;;;;;;;12.75;1.95;;;14.20;1.00;;;;;;7361034;19;20367;-64
2022/11/02 11:04:25;;;;;;;11.48;2.70;;;13.90;1.00;;;;;;7365595;19;20026;-65
2022/11/02 11:06:57;;;;;;;10.43;4.75;;;13.90;1.00;;;;;;7364078;19;20041;-65
2022/11/02 11:09:32;;;;;;;8.32;1.70;;;14.00;1.00;;;;;;7363426;19;20025;-65
2022/11/02 11:12:04;;;;;;;9.88;2.17;;;13.80;1.00;;;;;;7380542;19;20410;-64
2022/11/02 11:14:39;;;;;;;8.98;2.42;;;13.80;1.00;;;;;;7366867;19;20021;-66
2022/11/02 11:17:34;;;;;;;12.98;2.15;;;13.90;1.00;;;;;;7361919;19;20018;-66
2022/11/02 11:20:33;;;;;;;8.50;2.20;;;14.00;1.00;;;;;;7357424;19;20438;-65
2022/11/02 11:23:18;;;;;;;12.82;2.30;;;14.10;1.00;;;;;;7363140;19;20041;-64
2022/11/02 11:26:05;;;;;;;8.55;2.25;;;14.00;1.00;;;;;;7363457;19;20010;-64
2022/11/02 11:28:41;;;;;;;10.05;2.83;;;14.20;1.00;;;;;;7361713;19;20579;-65
2022/11/02 11:31:14;;;;;;;13.40;2.03;;;14.40;1.00;;;;;;7357527;19;20007;-64
2022/11/02 11:33:49;;;;;;;8.60;2.03;;;14.50;1.00;;;;;;7363853;19;20014;-64
2022/11/02 11:36:29;;;;;;;9.98;2.65;;;14.30;1.00;;;;;;7360379;19;20018;-66
2022/11/02 11:39:02;;;;;;;11.00;1.92;;;14.30;1.00;;;;;;7384356;19;20015;-65
2022/11/02 11:41:36;;;;;;;9.68;1.98;;;14.30;1.00;;;;;;7355051;19;20022;-65
2022/11/02 11:44:13;;;;;;;7.88;2.10;;;14.40;1.00;;;;;;7363756;19;20010;-65
2022/11/02 11:46:47;;;;;;;6.90;1.73;;;14.40;1.00;;;;;;7359050;19;20018;-64
2022/11/02 11:49:24;;;;;;;7.93;1.73;;;14.60;1.00;;;;;;7360875;19;20033;-65
2022/11/02 11:52:21;;;;;;;5.15;1.42;;;14.70;1.00;;;;;;7357614;19;20014;-65
2022/11/02 11:55:00;;;;;;;6.28;1.65;;;14.60;1.00;;;;;;7361691;19;20043;-65
2022/11/02 11:57:34;;;;;;;6.93;1.67;;;14.60;1.00;;;;;;7360959;19;20075;-65
2022/11/02 12:00:24;;;;;;;9.60;2.33;;;14.70;1.00;;;;;;7378742;19;20019;-65
2022/11/02 12:03:04;;;;;;;6.38;2.20;;;14.80;1.00;;;;;;7362513;19;20006;-65
2022/11/02 12:05:46;;;;;;;10.07;2.10;;;14.90;1.00;;;;;;7359486;19;20017;-64
2022/11/02 12:08:32;;;;;;;5.05;1.63;;;14.70;1.00;;;;;;7358956;19;20461;-65
2022/11/02 12:11:21;;;;;;;5.50;1.50;;;14.60;1.00;;;;;;7349778;19;20011;-64
2022/11/02 12:14:03;;;;;;;6.78;1.65;;;14.60;1.00;;;;;;7360815;19;20436;-65
2022/11/02 12:16:44;;;;;;;7.35;1.90;;;14.60;1.00;;;;;;7359817;19;20015;-65
2022/11/02 12:19:25;;;;;;;10.93;2.10;;;14.70;1.00;;;;;;7362706;19;20014;-65
2022/11/02 12:22:11;;;;;;;5.97;1.90;;;14.80;1.00;;;;;;7356341;19;20014;-65
2022/11/02 12:24:58;;;;;;;12.40;2.08;;;14.80;1.00;;;;;;7362923;19;20038;-65
2022/11/02 12:27:40;;;;;;;7.65;1.80;;;14.80;1.00;;;;;;7362262;19;20023;-65
2022/11/02 12:30:19;;;;;;;7.90;1.80;;;14.80;1.00;;;;;;7360834;19;20042;-65
2022/11/02 12:33:08;;;;;;;5.47;1.88;;;14.60;1.00;;;;;;7381097;19;20014;-64
2022/11/02 12:35:49;;;;;;;7.20;1.67;;;14.70;1.00;;;;;;7362075;19;20416;-65
2022/11/02 12:38:45;;;;;;;6.45;1.55;;;14.90;1.00;;;;;;7361395;19;20014;-66
2022/11/02 12:41:21;;;;;;;10.93;2.10;;;14.90;1.00;;;;;;7355358;19;20034;-66
2022/11/02 12:43:56;;;;;;;5.63;1.55;;;14.90;1.00;;;;;;7361610;19;20374;-65
2022/11/02 12:46:38;;;;;;;9.90;2.10;;;15.00;1.00;;;;;;7360273;19;20015;-65
2022/11/02 12:49:36;;;;;;;6.50;1.42;;;15.00;1.00;;;;;;7361898;19;20025;-65
2022/11/02 12:52:18;;;;;;;6.20;2.10;;;15.10;1.00;;;;;;7356266;19;20555;-64
2022/11/02 12:54:51;;;;;;;5.60;1.75;;;15.10;1.00;;;;;;7361621;19;20007;-65
2022/11/02 12:57:24;;;;;;;7.00;2.10;;;15.00;1.00;;;;;;7360341;19;20026;-65
2022/11/02 12:59:59;;;;;;;10.52;1.83;;;14.90;1.00;;;;;;7381662;19;20371;-65
2022/11/02 13:02:33;;;;;;;;;;;14.90;1.00;;;;;;7356496;19;20461;-65
2022/11/02 13:05:09;;;;;;;9.23;2.10;;;14.90;1.00;;;;;;7361302;19;19917;-65
2022/11/02 13:07:45;;;;;;;4.32;1.35;;;15.10;1.00;;;;;;7359886;19;20470;-65
2022/11/02 13:10:20;;;;;;;8.15;2.20;;;15.10;1.00;;;;;;7356365;19;20048;-66
2022/11/02 13:12:57;;;;;;;5.10;1.83;;;15.20;1.00;;;;;;7357372;19;20477;-64
2022/11/02 13:15:28;;;;;;;6.53;1.65;;;15.10;1.00;;;;;;7362301;19;20022;-65
2022/11/02 13:18:04;;;;;;;11.77;2.42;;;15.00;1.00;;;;;;7380467;19;20029;-67
2022/11/02 13:20:41;;;;;;;11.23;1.55;;;15.00;1.00;;;;;;7351037;19;20016;-65
2022/11/02 13:23:19;;;;;;;6.88;1.77;;;15.10;1.00;;;;;;7354045;19;20006;-65
2022/11/02 13:25:52;;;;;;;10.30;1.88;;;14.80;1.00;;;;;;7349114;19;20015;-64
2022/11/02 13:28:33;;;;;;;9.70;2.17;;;14.70;1.00;;;;;;7381938;19;20569;-64
2022/11/02 13:31:06;;;;;;;9.25;2.08;;;14.60;1.00;;;;;;7352849;19;20448;-65
2022/11/02 13:33:49;;;;;;;11.55;2.00;;;14.60;1.00;;;;;;7361419;19;20801;-65
2022/11/02 13:36:19;;;;;;;7.78;1.83;;;14.80;1.00;;;;;;7360312;19;20026;-65
2022/11/02 13:38:54;;;;;;;5.88;2.10;;;14.70;1.00;;;;;;7360668;19;20019;-65